YBCG/OOL METAR and TAF weather

Enter ICAO airport designator
Station Type Date Time Source
YBCG METAR 2019/07/17 18:00 UTC NOAA

YBCG 171800Z AUTO 23001KT 9999 // NCD 06/06 Q1014


Station Type Date Time Source
YBCG Decoded METAR 2019/07/17 18:00 UTC NOAA

Coolangatta Airport Aws, Australia (YBCG) 28-10S 153-30E 6M
Jul 17, 2019 - 02:00 PM EDT / 2019.07.17 1800 UTC
Wind: from the SW (230 degrees) at 1 MPH (1 KT):0
Visibility: greater than 7 mile(s):0
Temperature: 42 F (6 C)
Dew Point: 42 F (6 C)
Relative Humidity: 100%
Pressure (altimeter): 29.94 in. Hg (1014 hPa)
ob: YBCG 171800Z AUTO 23001KT 9999 // NCD 06/06 Q1014
cycle: 18

Station Type Date Time Source
YBCG TAF 2019/07/17 18:33 UTC NOAA

TAF YBCG 171700Z 1718/1818 23005KT CAVOK
FM172300 17008KT CAVOK
FM180400 15008KT CAVOK
FM180700 22005KT CAVOK

Example: see airport list